Olive Branch, IL (62969)

9:32 PM CDT on May 26, 2015 (GMT -0500)
RAWS | | Change Station
CLOSE
Current Station
Personal Weather Station
Location: Thebes, IL
Elevation: 700 ft
Nearby Weather Stations

Elev 700 ft 37.25 °N, 89.38 °W | Updated 24 minutes ago

Clear
Clear
67 °F
Feels Like 67 °F
N
2
Wind Variable Wind from SSE
Gusts 6.0 mph

Today
High -- | Low -- °F
--% Chance of Precip.
Yesterday
High -- | Low -- °F
Precip. -- in
5:41 AM 8:07 PM
Waxing Gibbous, 63% visible
Pressure 30.04 in
Visibility 10.0 miles
Clouds Clear
Dew Point 64 °F
Humidity 89%
Rainfall in
Snow Depth Not available.
UV 0 out of 12
Pollen 2.70 out of 12
Air Quality Not available.
Flu Activity Sporadic
METAR KCIR 270215Z AUTO 19005KT 10SM CLR 21/18 A3004 RMK AO2 T02070176

More Conditions Fewer Conditions

Pressure 30.04 in
Visibility 10.0 miles
Clouds Clear
Dew Point 64 °F
Humidity 89%
Rainfall in
Snow Depth Not available.
UV 0 out of 12
Pollen 2.70 out of 12
Air Quality Not available.
Flu Activity Sporadic
METAR KCIR 270215Z AUTO 19005KT 10SM CLR 21/18 A3004 RMK AO2 T02070176

More Conditions Fewer Conditions

10-Day Weather Forecast

Almanac

Astronomy

May. 26, 2015 Rise Set
Actual Time
Civil Twilight
Nautical Twilight
Astronomical Twilight
Moon
Length of Visible Light
Length of Day
Tomorrow will be .
, % of the Moon is Illuminated

Today's Extremes

State Highs State Lows

Community

WunderPhotos

Upload Photos

1,824,568 photos uploaded!

WunderBlogs® & News

Nearby

Air Quality

  Air Quality AQ Index Pollutant
Not available.

Snow Depth

Station Depth Elevation

Earthquake Activity

City Distance Mag. Time & Date
Minimum magnitude displayed is 2.5.

Coastal Water Temperatures

Place Temperature

Stations

Nearby Weather Stations

Station Location Temp. Windchill Dew Point Humidity Wind Precip. Elev Updated Type